createdAt,value
2019-05-07T00:01:56.317Z,96777.27
2019-05-07T00:04:25.400Z,96774.34
2019-05-07T00:06:57.788Z,96774.17
2019-05-07T00:09:26.906Z,96774.83
2019-05-07T00:11:55.966Z,96767.89
2019-05-07T00:14:24.998Z,96770.90
2019-05-07T00:16:54.096Z,96772.08
2019-05-07T00:19:24.996Z,96773.19
2019-05-07T00:21:54.199Z,96771.37
2019-05-07T00:24:23.273Z,96769.87
2019-05-07T00:26:53.247Z,96769.00
2019-05-07T00:29:22.597Z,96761.73
2019-05-07T00:31:53.617Z,96758.95
2019-05-07T00:34:29.862Z,96755.14
2019-05-07T00:37:13.105Z,96755.77
2019-05-07T00:40:16.931Z,96754.08
2019-05-07T00:43:05.179Z,96758.55
2019-05-07T00:45:46.146Z,96752.14
2019-05-07T00:48:19.655Z,96743.44
2019-05-07T00:50:52.693Z,96739.83
2019-05-07T00:53:24.466Z,96743.06
2019-05-07T00:55:56.220Z,96735.02
2019-05-07T00:58:27.484Z,96740.23
2019-05-07T01:00:58.154Z,96739.92
2019-05-07T01:03:27.435Z,96728.50
2019-05-07T01:05:56.544Z,96735.50
2019-05-07T01:08:25.626Z,96733.34
2019-05-07T01:10:57.756Z,96740.34
2019-05-07T01:13:32.325Z,96728.45
2019-05-07T01:16:05.981Z,96742.19
2019-05-07T01:18:36.107Z,96728.59
2019-05-07T01:21:07.782Z,96723.29
2019-05-07T01:23:36.860Z,96730.97
2019-05-07T01:26:07.303Z,96722.90
2019-05-07T01:28:54.510Z,96723.78
2019-05-07T01:31:24.928Z,96726.00
2019-05-07T01:34:02.566Z,96721.39
2019-05-07T01:36:34.321Z,96714.91
2019-05-07T01:39:03.753Z,96717.20
2019-05-07T01:41:32.863Z,96706.77
2019-05-07T01:44:06.340Z,96709.64
2019-05-07T01:46:35.380Z,96706.70
2019-05-07T01:49:04.479Z,96705.45
2019-05-07T01:51:34.638Z,96709.44
2019-05-07T01:54:04.908Z,96708.79
2019-05-07T01:56:42.613Z,96709.61
2019-05-07T01:59:13.625Z,96710.08
2019-05-07T02:01:43.158Z,96708.69
2019-05-07T02:04:29.939Z,96713.73
2019-05-07T02:07:17.078Z,96715.27
2019-05-07T02:09:55.203Z,96709.16
2019-05-07T02:12:31.930Z,96710.22
2019-05-07T02:15:02.703Z,96714.91
2019-05-07T02:17:32.305Z,96713.47
2019-05-07T02:20:05.625Z,96711.39
2019-05-07T02:22:37.189Z,96714.13
2019-05-07T02:25:09.989Z,96709.70
2019-05-07T02:27:42.293Z,96711.00
2019-05-07T02:30:14.715Z,96783.27
2019-05-07T02:32:43.328Z,96703.39
2019-05-07T02:35:13.658Z,96704.70
2019-05-07T02:37:56.195Z,96702.59
2019-05-07T02:40:48.719Z,96699.77
2019-05-07T02:43:17.768Z,96702.03
2019-05-07T02:46:20.645Z,96691.99
2019-05-07T02:48:49.006Z,96689.75
2019-05-07T02:51:26.635Z,96698.23
2019-05-07T02:54:08.189Z,96702.34
2019-05-07T02:56:37.227Z,96705.29
2019-05-07T02:59:06.484Z,96705.39
2019-05-07T03:01:37.309Z,96702.05
2019-05-07T03:04:07.542Z,96705.98
2019-05-07T03:06:43.984Z,96704.80
2019-05-07T03:09:14.488Z,96704.33
2019-05-07T03:11:43.801Z,96706.70
2019-05-07T03:14:16.297Z,96703.31
2019-05-07T03:16:49.637Z,96708.09
2019-05-07T03:19:19.970Z,96705.64
2019-05-07T03:21:56.159Z,96705.70
2019-05-07T03:24:56.696Z,96703.66
2019-05-07T03:27:44.676Z,96702.34
2019-05-07T03:30:45.028Z,96708.50
2019-05-07T03:33:29.122Z,96710.48
2019-05-07T03:35:58.973Z,96709.20
2019-05-07T03:38:28.042Z,96710.22
2019-05-07T03:40:57.109Z,96710.77
2019-05-07T03:43:27.234Z,96705.09
2019-05-07T03:46:17.000Z,96705.67
2019-05-07T03:48:53.149Z,96703.88
2019-05-07T03:51:23.722Z,96704.20
2019-05-07T03:53:54.763Z,96698.45
2019-05-07T03:56:27.774Z,96700.15
2019-05-07T03:58:56.815Z,96700.30
2019-05-07T04:01:25.888Z,96700.97
2019-05-07T04:03:56.148Z,96700.17
2019-05-07T04:06:29.646Z,96704.22
2019-05-07T04:08:58.771Z,96702.47
2019-05-07T04:11:27.852Z,96710.05
2019-05-07T04:13:57.736Z,96708.49
2019-05-07T04:16:27.275Z,96713.55
2019-05-07T04:18:58.053Z,96714.65
2019-05-07T04:21:27.136Z,96713.79
2019-05-07T04:24:13.730Z,96715.64
2019-05-07T04:26:45.981Z,96721.81
2019-05-07T04:29:22.886Z,96717.92
2019-05-07T04:31:53.243Z,96618.42
2019-05-07T04:34:39.884Z,96721.94
2019-05-07T04:37:08.933Z,96715.77
2019-05-07T04:39:42.868Z,96723.66
2019-05-07T04:42:13.386Z,96721.88
2019-05-07T04:44:43.690Z,96724.88
2019-05-07T04:47:13.399Z,96714.61
2019-05-07T04:49:43.888Z,96706.94
2019-05-07T04:52:19.048Z,96707.31
2019-05-07T04:54:48.501Z,96701.98
2019-05-07T04:57:26.977Z,96707.30
2019-05-07T04:59:58.962Z,96704.80
2019-05-07T05:02:47.506Z,96700.61
2019-05-07T05:05:23.661Z,96701.44
2019-05-07T05:07:56.527Z,96704.07
2019-05-07T05:10:27.384Z,96705.20
2019-05-07T05:12:56.461Z,96706.16
2019-05-07T05:15:25.509Z,96710.23
2019-05-07T05:17:54.562Z,96701.41
2019-05-07T05:20:33.719Z,96702.96
2019-05-07T05:23:33.994Z,96699.20
2019-05-07T05:26:04.636Z,96702.67
2019-05-07T05:28:33.755Z,96696.22
2019-05-07T05:31:04.763Z,96703.84
2019-05-07T05:33:36.757Z,96698.86
2019-05-07T05:36:05.832Z,96760.73
2019-05-07T05:38:35.244Z,96706.97
2019-05-07T05:41:04.750Z,96702.16
2019-05-07T05:43:46.891Z,96700.06
2019-05-07T05:46:16.177Z,96700.09
2019-05-07T05:48:48.293Z,96708.88
2019-05-07T05:51:26.791Z,96707.14
2019-05-07T05:54:14.791Z,96705.25
2019-05-07T05:56:54.485Z,96707.96
2019-05-07T05:59:55.589Z,96708.41
2019-05-07T06:02:34.299Z,96699.23
2019-05-07T06:05:22.349Z,96702.34
2019-05-07T06:07:59.116Z,96696.25
2019-05-07T06:10:53.722Z,96692.53
2019-05-07T06:13:34.937Z,96703.36
2019-05-07T06:16:13.194Z,96697.73
2019-05-07T06:18:57.908Z,96701.02
2019-05-07T06:21:47.903Z,96702.54
2019-05-07T06:24:22.515Z,96699.06
2019-05-07T06:27:09.236Z,96698.09
2019-05-07T06:29:39.354Z,96702.23
2019-05-07T06:32:12.134Z,96710.16
2019-05-07T06:34:44.651Z,96701.73
2019-05-07T06:37:12.964Z,96698.09
2019-05-07T06:40:13.284Z,96699.44
2019-05-07T06:42:55.337Z,96710.70
2019-05-07T06:45:35.311Z,96715.70
2019-05-07T06:48:03.572Z,96710.89
2019-05-07T06:50:35.718Z,96710.63
2019-05-07T06:53:07.614Z,96710.20
2019-05-07T06:55:49.017Z,96709.03
2019-05-07T06:58:18.455Z,96707.92
2019-05-07T07:01:12.104Z,96713.16
2019-05-07T07:04:02.619Z,96794.27
2019-05-07T07:06:52.360Z,96710.64
2019-05-07T07:09:27.621Z,96710.69
2019-05-07T07:12:02.024Z,96711.31
2019-05-07T07:14:33.178Z,96712.31
2019-05-07T07:17:03.695Z,96707.67
2019-05-07T07:19:35.991Z,96708.64
2019-05-07T07:22:03.990Z,96700.23
2019-05-07T07:24:33.111Z,96697.00
2019-05-07T07:27:02.474Z,96701.95
2019-05-07T07:29:36.332Z,96719.65
2019-05-07T07:32:07.878Z,96710.45
2019-05-07T07:34:43.145Z,96702.48
2019-05-07T07:37:22.933Z,96704.88
2019-05-07T07:40:09.511Z,96707.69
2019-05-07T07:42:39.420Z,96698.75
2019-05-07T07:45:16.950Z,96707.13
2019-05-07T07:47:46.508Z,96701.39
2019-05-07T07:50:17.182Z,96701.59
2019-05-07T07:52:46.363Z,96699.20
2019-05-07T07:55:17.483Z,96695.85
2019-05-07T07:57:52.440Z,96699.70
2019-05-07T08:00:52.534Z,96699.81
2019-05-07T08:03:26.134Z,96693.91
2019-05-07T08:05:54.623Z,96696.05
2019-05-07T08:08:26.668Z,96691.56
2019-05-07T08:10:55.851Z,96688.81
2019-05-07T08:13:28.693Z,96681.00
2019-05-07T08:16:02.909Z,96679.70
2019-05-07T08:18:36.079Z,96692.02
2019-05-07T08:21:07.998Z,96691.31
2019-05-07T08:23:37.219Z,96689.06
2019-05-07T08:26:06.298Z,96680.85
2019-05-07T08:28:36.104Z,96679.08
2019-05-07T08:31:27.323Z,96676.58
2019-05-07T08:34:03.083Z,96671.53
2019-05-07T08:36:33.199Z,96676.76
2019-05-07T08:39:05.826Z,96673.27
2019-05-07T08:41:35.875Z,96666.21
2019-05-07T08:44:15.476Z,96665.66
2019-05-07T08:47:02.797Z,96668.06
2019-05-07T08:49:39.583Z,96665.11
2019-05-07T08:52:04.820Z,96656.16
2019-05-07T08:54:38.221Z,96653.03
2019-05-07T08:57:08.995Z,96655.30
2019-05-07T08:59:42.268Z,96653.05
2019-05-07T09:02:13.024Z,96742.95
2019-05-07T09:04:42.122Z,96737.08
2019-05-07T09:07:13.031Z,96654.28
2019-05-07T09:09:42.847Z,96646.19
2019-05-07T09:12:12.652Z,96639.86
2019-05-07T09:14:42.530Z,96640.51
2019-05-07T09:17:14.491Z,96638.80
2019-05-07T09:19:51.530Z,96637.95
2019-05-07T09:22:18.493Z,96631.84
2019-05-07T09:24:59.696Z,96629.63
2019-05-07T09:27:48.896Z,96629.53
2019-05-07T09:30:38.437Z,96632.39
2019-05-07T09:33:16.908Z,96627.91
2019-05-07T09:35:48.325Z,96622.05
2019-05-07T09:38:25.342Z,96623.09
2019-05-07T09:40:57.070Z,96612.40
2019-05-07T09:43:26.298Z,96606.36
2019-05-07T09:45:55.336Z,96613.48
2019-05-07T09:48:26.107Z,96610.41
2019-05-07T09:51:02.326Z,96609.19
2019-05-07T09:53:32.884Z,96608.28
2019-05-07T09:56:03.810Z,96598.67
2019-05-07T09:58:39.936Z,96603.74
2019-05-07T10:01:14.011Z,96607.69
2019-05-07T10:03:43.607Z,96600.36
2019-05-07T10:06:12.940Z,96604.15
2019-05-07T10:08:47.456Z,96603.51
2019-05-07T10:11:24.209Z,96601.47
2019-05-07T10:14:01.491Z,96598.73
2019-05-07T10:16:55.774Z,96595.80
2019-05-07T10:19:25.113Z,96597.19
2019-05-07T10:21:56.636Z,96615.14
2019-05-07T10:24:26.110Z,96592.88
2019-05-07T10:26:58.336Z,96592.31
2019-05-07T10:29:32.254Z,96591.67
2019-05-07T10:32:03.075Z,96591.74
2019-05-07T10:34:32.175Z,96588.97
2019-05-07T10:37:02.696Z,96620.76
2019-05-07T10:39:32.586Z,96590.92
2019-05-07T10:42:03.598Z,96591.07
2019-05-07T10:44:43.177Z,96587.30
2019-05-07T10:47:49.254Z,96584.55
2019-05-07T10:50:35.557Z,96577.86
2019-05-07T10:52:58.987Z,96578.05
2019-05-07T10:55:32.739Z,96576.36
2019-05-07T10:58:09.462Z,96576.33
2019-05-07T11:00:39.120Z,96572.86
2019-05-07T11:03:10.084Z,96574.91
2019-05-07T11:05:39.258Z,96563.87
2019-05-07T11:08:10.208Z,96561.50
2019-05-07T11:10:39.386Z,96547.92
2019-05-07T11:13:09.857Z,96555.64
2019-05-07T11:15:39.755Z,96556.11
2019-05-07T11:18:17.355Z,96561.06
2019-05-07T11:20:50.328Z,96540.48
2019-05-07T11:23:17.819Z,96552.98
2019-05-07T11:25:52.632Z,96539.64
2019-05-07T11:28:23.673Z,96536.78
2019-05-07T11:30:58.604Z,96534.88
2019-05-07T11:33:37.412Z,96532.80
2019-05-07T11:36:16.993Z,96533.48
2019-05-07T11:38:46.106Z,96526.95
2019-05-07T11:41:15.226Z,96526.95
2019-05-07T11:44:13.981Z,96521.14
2019-05-07T11:47:12.317Z,96522.91
2019-05-07T11:50:00.177Z,96521.39
2019-05-07T11:52:38.463Z,96519.25
2019-05-07T11:55:13.706Z,96514.75
2019-05-07T11:57:45.770Z,96509.05
2019-05-07T12:00:35.683Z,96498.23
2019-05-07T12:03:05.022Z,96496.63
2019-05-07T12:05:37.746Z,96490.33
2019-05-07T12:08:37.566Z,96490.21
2019-05-07T12:11:02.354Z,96481.53
2019-05-07T12:13:32.286Z,96483.45
2019-05-07T12:16:03.038Z,96483.89
2019-05-07T12:18:36.229Z,96481.00
2019-05-07T12:21:18.305Z,96477.73
2019-05-07T12:23:38.216Z,96474.73
2019-05-07T12:26:07.740Z,96478.08
2019-05-07T12:28:37.308Z,96471.09
2019-05-07T12:31:41.678Z,96470.12
2019-05-07T12:34:17.733Z,96468.07
2019-05-07T12:36:52.443Z,96456.58
2019-05-07T12:39:24.767Z,96453.40
2019-05-07T12:41:59.510Z,96455.33
2019-05-07T12:44:32.082Z,96462.63
2019-05-07T12:47:02.323Z,96460.46
2019-05-07T12:49:32.561Z,96466.11
2019-05-07T12:52:09.640Z,96456.68
2019-05-07T12:54:57.782Z,96456.06
2019-05-07T12:57:30.068Z,96450.08
2019-05-07T13:00:18.133Z,96447.31
2019-05-07T13:03:06.539Z,96460.03
2019-05-07T13:05:37.250Z,96450.28
2019-05-07T13:08:12.340Z,96452.16
2019-05-07T13:10:37.417Z,96438.41
2019-05-07T13:13:06.508Z,96439.06
2019-05-07T13:15:35.911Z,96433.20
2019-05-07T13:18:05.414Z,96430.22
2019-05-07T13:20:37.485Z,96420.56
2019-05-07T13:23:06.569Z,96428.34
2019-05-07T13:25:37.126Z,96431.86
2019-05-07T13:28:07.121Z,96501.58
2019-05-07T13:30:44.276Z,96420.84
2019-05-07T13:33:14.084Z,96421.83
2019-05-07T13:35:44.404Z,96416.98
2019-05-07T13:38:32.326Z,96423.20
2019-05-07T13:41:24.187Z,96412.03
2019-05-07T13:44:18.442Z,96410.89
2019-05-07T13:46:52.875Z,96420.95
2019-05-07T13:49:22.052Z,96421.84
2019-05-07T13:52:03.397Z,96409.42
2019-05-07T13:54:28.484Z,96403.27
2019-05-07T13:56:57.635Z,96412.04
2019-05-07T13:59:40.012Z,96395.37
2019-05-07T14:02:15.659Z,96383.41
2019-05-07T14:04:44.805Z,96376.66
2019-05-07T14:07:14.017Z,96394.39
2019-05-07T14:12:27.407Z,96376.12
2019-05-07T14:15:02.022Z,96371.77
2019-05-07T14:17:32.075Z,96364.41
2019-05-07T14:20:04.965Z,96364.29
2019-05-07T14:22:32.675Z,96454.36
2019-05-07T14:25:09.246Z,96374.33
2019-05-07T14:27:38.429Z,96379.90
2019-05-07T14:30:08.198Z,96378.56
2019-05-07T14:32:46.150Z,96362.47
2019-05-07T14:35:26.881Z,96375.81
2019-05-07T14:38:03.324Z,96365.73
2019-05-07T14:40:35.543Z,96363.34
2019-05-07T14:43:09.747Z,96359.45
2019-05-07T14:45:42.086Z,96346.64
2019-05-07T14:48:12.191Z,96348.63
2019-05-07T14:50:44.935Z,96347.80
2019-05-07T14:53:14.875Z,96344.06
2019-05-07T14:55:52.055Z,96348.14
2019-05-07T14:58:21.116Z,96347.75
2019-05-07T15:00:51.873Z,96349.97
2019-05-07T15:03:23.952Z,96342.70
2019-05-07T15:06:02.470Z,96342.25
2019-05-07T15:08:35.270Z,96332.05
2019-05-07T15:11:08.226Z,96320.99
2019-05-07T15:13:37.428Z,96326.44
2019-05-07T15:16:06.863Z,96313.94
2019-05-07T15:19:04.146Z,96124.77
2019-05-07T15:21:37.149Z,96321.08
2019-05-07T15:24:06.201Z,96313.78
2019-05-07T15:26:38.790Z,96301.53
2019-05-07T15:29:14.296Z,96306.34
2019-05-07T15:32:17.354Z,96306.19
2019-05-07T15:34:46.419Z,96314.72
2019-05-07T15:37:17.010Z,96311.87
2019-05-07T15:39:50.340Z,96296.30
2019-05-07T15:42:17.163Z,96305.94
2019-05-07T15:44:48.127Z,96305.23
2019-05-07T15:47:22.671Z,96303.74
2019-05-07T15:49:55.352Z,96292.55
2019-05-07T15:52:58.115Z,96300.82
2019-05-07T15:55:22.493Z,96298.30
2019-05-07T15:57:52.162Z,96294.81
2019-05-07T16:00:23.530Z,96293.58
2019-05-07T16:03:02.060Z,96282.88
2019-05-07T16:05:31.735Z,96288.63
2019-05-07T16:08:12.362Z,96279.75
2019-05-07T16:10:42.606Z,96274.76
2019-05-07T16:13:13.992Z,96271.28
2019-05-07T16:15:44.843Z,96272.36
2019-05-07T16:18:17.807Z,96274.91
2019-05-07T16:20:46.919Z,96266.56
2019-05-07T16:23:19.012Z,96275.40
2019-05-07T16:25:52.784Z,96274.17
2019-05-07T16:28:22.029Z,96262.73
2019-05-07T16:30:55.128Z,96266.04
2019-05-07T16:33:26.539Z,96264.70
2019-05-07T16:35:55.668Z,96259.56
2019-05-07T16:38:24.800Z,96253.09
2019-05-07T16:40:54.981Z,96253.98
2019-05-07T16:43:31.900Z,96252.31
2019-05-07T16:46:02.454Z,96242.16
2019-05-07T16:48:38.298Z,96229.73
2019-05-07T16:51:07.379Z,96235.83
2019-05-07T16:53:42.248Z,96226.98
2019-05-07T16:56:12.415Z,96224.05
2019-05-07T16:58:52.286Z,96224.07
2019-05-07T17:01:22.265Z,96212.09
2019-05-07T17:03:55.957Z,96218.65
2019-05-07T17:06:31.907Z,96214.19
2019-05-07T17:09:08.879Z,96219.70
2019-05-07T17:11:39.437Z,96211.08
2019-05-07T17:14:10.278Z,96218.02
2019-05-07T17:16:42.376Z,96217.96
2019-05-07T17:19:15.499Z,96209.49
2019-05-07T17:21:44.683Z,96212.77
2019-05-07T17:24:13.773Z,95249.64
2019-05-07T17:26:42.846Z,96206.42
2019-05-07T17:29:12.159Z,96204.66
2019-05-07T17:31:42.405Z,96201.23
2019-05-07T17:34:16.281Z,96202.77
2019-05-07T17:36:49.125Z,96087.26
2019-05-07T17:39:22.527Z,96199.19
2019-05-07T17:41:53.073Z,96197.22
2019-05-07T17:44:23.247Z,96198.40
2019-05-07T17:46:53.518Z,96200.36
2019-05-07T17:49:22.600Z,96197.57
2019-05-07T17:51:52.574Z,96201.57
2019-05-07T17:54:22.529Z,96195.33
2019-05-07T17:56:52.686Z,96197.16
2019-05-07T17:59:23.298Z,96195.78
2019-05-07T18:02:29.575Z,96197.86
2019-05-07T18:05:06.201Z,96199.25
2019-05-07T18:07:36.922Z,96188.48
2019-05-07T18:10:06.569Z,96188.02
2019-05-07T18:12:35.643Z,96357.05
2019-05-07T18:15:09.442Z,96189.55
2019-05-07T18:17:45.973Z,96184.62
2019-05-07T18:20:18.140Z,96179.95
2019-05-07T18:22:47.232Z,96186.22
2019-05-07T18:25:17.439Z,96185.78
2019-05-07T18:27:46.527Z,96172.52
2019-05-07T18:30:16.816Z,96177.40
2019-05-07T18:32:51.984Z,96174.87
2019-05-07T18:35:27.837Z,96178.18
2019-05-07T18:38:04.433Z,96168.77
2019-05-07T18:40:33.562Z,96172.03
2019-05-07T18:43:03.124Z,96172.33
2019-05-07T18:45:32.462Z,96179.92
2019-05-07T18:48:02.403Z,96182.80
2019-05-07T18:50:33.839Z,96184.02
2019-05-07T18:53:02.978Z,96186.38
2019-05-07T18:55:33.097Z,96184.50
2019-05-07T18:58:02.897Z,96193.90
2019-05-07T19:00:38.559Z,96196.94
2019-05-07T19:03:10.844Z,96188.86
2019-05-07T19:05:42.406Z,96196.51
2019-05-07T19:08:13.545Z,96201.09
2019-05-07T19:10:44.135Z,96201.94
2019-05-07T19:13:17.706Z,96199.16
2019-05-07T19:15:48.263Z,96196.20
2019-05-07T19:18:22.606Z,96198.91
2019-05-07T19:20:52.990Z,96197.02
2019-05-07T19:23:22.456Z,96198.35
2019-05-07T19:25:53.045Z,96193.77
2019-05-07T19:28:26.761Z,96196.25
2019-05-07T19:30:55.838Z,96194.66
2019-05-07T19:33:27.150Z,96191.84
2019-05-07T19:35:59.533Z,96193.00
2019-05-07T19:38:32.345Z,96188.52
2019-05-07T19:41:02.897Z,96193.30
2019-05-07T19:43:36.340Z,96191.00
2019-05-07T19:46:05.681Z,96191.52
2019-05-07T19:48:35.308Z,96190.28
2019-05-07T19:51:04.444Z,96190.23
2019-05-07T19:53:33.526Z,96192.05
2019-05-07T19:56:05.800Z,96192.00
2019-05-07T19:58:36.068Z,96186.55
2019-05-07T20:01:06.882Z,96185.67
2019-05-07T20:03:36.031Z,96178.34
2019-05-07T20:06:09.660Z,96176.77
2019-05-07T20:08:38.766Z,96176.36
2019-05-07T20:11:31.996Z,96172.36
2019-05-07T20:14:02.076Z,96166.22
2019-05-07T20:16:33.041Z,96169.14
2019-05-07T20:19:02.441Z,96167.42
2019-05-07T20:21:32.704Z,96159.09
2019-05-07T20:24:06.950Z,96162.66
2019-05-07T20:26:43.817Z,96156.85
2019-05-07T20:29:13.376Z,96157.70
2019-05-07T20:31:42.567Z,96155.47
2019-05-07T20:34:15.463Z,96153.05
2019-05-07T20:36:44.627Z,96147.84
2019-05-07T20:39:14.018Z,96277.66
2019-05-07T20:41:44.404Z,96141.35
2019-05-07T20:44:13.842Z,96149.98
2019-05-07T20:46:42.909Z,96146.48
2019-05-07T20:49:13.440Z,96136.36
2019-05-07T20:51:45.023Z,96136.78
2019-05-07T20:54:48.136Z,96125.84
2019-05-07T20:57:23.186Z,96120.59
2019-05-07T20:59:53.744Z,96126.53
2019-05-07T21:02:23.298Z,96122.00
2019-05-07T21:04:52.368Z,96125.50
2019-05-07T21:07:22.415Z,96121.22
2019-05-07T21:09:53.029Z,96120.94
2019-05-07T21:12:25.338Z,96116.34
2019-05-07T21:14:57.582Z,96112.89
2019-05-07T21:17:32.200Z,96116.48
2019-05-07T21:20:04.576Z,96112.89
2019-05-07T21:22:39.634Z,96102.14
2019-05-07T21:25:08.778Z,96094.55
2019-05-07T21:27:37.834Z,96086.52
2019-05-07T21:30:07.348Z,96078.59
2019-05-07T21:32:39.291Z,96068.14
2019-05-07T21:35:11.043Z,96068.77
2019-05-07T21:37:41.795Z,96074.17
2019-05-07T21:40:13.034Z,96072.30
2019-05-07T21:42:42.664Z,96062.08
2019-05-07T21:45:15.676Z,96059.34
2019-05-07T21:47:44.754Z,96063.11
2019-05-07T21:50:14.646Z,96061.11
2019-05-07T21:52:46.524Z,96065.33
2019-05-07T21:55:28.601Z,96067.75
2019-05-07T21:58:25.447Z,96063.79
2019-05-07T22:01:23.540Z,96053.83
2019-05-07T22:03:56.996Z,96050.84
2019-05-07T22:06:26.060Z,96055.08
2019-05-07T22:08:55.248Z,96146.43
2019-05-07T22:11:34.871Z,96057.45
2019-05-07T22:14:06.730Z,96054.91
2019-05-07T22:16:38.712Z,96052.22
2019-05-07T22:19:12.849Z,96042.11
2019-05-07T22:21:43.431Z,96034.66
2019-05-07T22:24:17.778Z,96026.23
2019-05-07T22:26:48.533Z,96028.62
2019-05-07T22:29:17.540Z,96026.12
2019-05-07T22:32:04.401Z,96017.69
2019-05-07T22:34:55.652Z,96013.05
2019-05-07T22:37:24.697Z,96007.10
2019-05-07T22:39:56.971Z,96008.69
2019-05-07T22:42:32.684Z,95999.82
2019-05-07T22:45:03.855Z,95996.58
2019-05-07T22:47:34.145Z,96003.07
2019-05-07T22:50:03.973Z,96002.14
2019-05-07T22:52:34.147Z,95996.45
2019-05-07T22:55:04.621Z,95984.51
2019-05-07T22:57:55.768Z,95984.33
2019-05-07T23:00:47.550Z,95980.24
2019-05-07T23:03:22.896Z,95982.57
2019-05-07T23:05:56.695Z,95984.39
2019-05-07T23:08:42.362Z,95981.67
2019-05-07T23:11:12.257Z,95975.45
2019-05-07T23:13:42.971Z,95971.48
2019-05-07T23:16:13.724Z,95973.62
2019-05-07T23:18:43.163Z,95964.08
2019-05-07T23:21:12.378Z,95970.72
2019-05-07T23:23:44.158Z,95967.78
2019-05-07T23:26:14.873Z,95966.99
2019-05-07T23:28:45.243Z,95963.56
2019-05-07T23:31:14.319Z,95965.46
2019-05-07T23:33:43.361Z,95963.09
2019-05-07T23:36:16.994Z,95963.63
2019-05-07T23:38:52.091Z,95964.95
2019-05-07T23:41:36.991Z,95969.16
2019-05-07T23:44:23.238Z,95961.22
2019-05-07T23:46:52.319Z,95963.09
2019-05-07T23:49:23.216Z,95963.30
2019-05-07T23:51:53.094Z,95961.98
2019-05-07T23:54:23.132Z,95959.32
2019-05-07T23:57:05.863Z,95954.06
2019-05-07T23:59:26.561Z,95955.10
